Corona Kingdom — 7JYO — position and weather

sailwx.info

Track history (hours):
 
Tides and Currents Weather Stations Pressure Air Temp Water Temp Dewpoint Dewpoint Depression Visibility Wind Speed Wind Dir Waves Ship Positions

Corona Kingdom

Last reported at 2017-Sep-11 11:57 UTC. Time now 2017-Sep-23 16:34 UTC.
Position N 34°36' E 139°53'.
Warning: this ship's position is 12 days out of date.

Length 229 m; draft 8.9 m.

Type: Cargo ship. MMSI: 431400000.

Date/timePositionNaut miles runAvg speedWind from/ knotsBaromVisibWave heightAir tempDewpointWater temp
2017-Sep-11 11:57N 34°36' E 139°53'1113.1
2017-Sep-11 11:05N 34°45' E 139°46'212.9
2017-Sep-11 10:56N 34°47' E 139°45'613.5
2017-Sep-11 10:29N 34°52' E 139°42'612.9
2017-Sep-11 10:00N 34°58' E 139°40'612.1
2017-Sep-11 09:30N 35°04' E 139°42'612.5
2017-Sep-11 09:00N 35°10' E 139°45'510.6
2017-Sep-11 08:30N 35°15' E 139°46'510.3
2017-Sep-11 08:01N 35°19' E 139°43'611.0
2017-Sep-11 07:31N 35°25' E 139°43'612.3
2017-Sep-11 07:01N 35°28' E 139°49'5 9.6
2017-Sep-11 06:31N 35°31' E 139°54'0 0.1
2017-Sep-11 05:53N 35°32' E 139°54'0 0.0
2017-Sep-11 05:26N 35°32' E 139°54'0 0.0
2017-Sep-11 04:59N 35°32' E 139°54'0 0.0
2017-Sep-11 04:29N 35°32' E 139°54'0 0.0
2017-Sep-11 03:59N 35°32' E 139°54'0 0.0
2017-Sep-11 03:29N 35°32' E 139°54'0 0.1
2017-Sep-11 02:59N 35°32' E 139°54'0 0.1
2017-Sep-11 02:29N 35°32' E 139°54'0 0.3
2017-Sep-11 01:59N 35°31' E 139°54'0 0.2
2017-Sep-11 01:30N 35°31' E 139°54'3 6.2
2017-Sep-11 01:00N 35°29' E 139°52'612.2
2017-Sep-11 00:31N 35°25' E 139°47'612.3
2017-Sep-11 00:00N 35°19' E 139°44'612.4
2017-Sep-10 23:30N 35°13' E 139°47'4 8.7
2017-Sep-10 23:00N 35°09' E 139°46'3 5.4
2017-Sep-10 22:30N 35°06' E 139°45'3 6.9
2017-Sep-10 22:00N 35°03' E 139°43'3 6.9
2017-Sep-10 21:30N 34°60' E 139°42'4 8.7
2017-Sep-10 21:00N 34°55' E 139°42'5 8.8
2017-Sep-10 20:29N 34°51' E 139°42'  
Track history (hours):
 
Tides and Currents Weather Stations Pressure Air Temp Water Temp Dewpoint Dewpoint Depression Visibility Wind Speed Wind Dir Waves Ship Positions

Corona Kingdom

Last reported at 2017-Sep-11 11:57 UTC. Time now 2017-Sep-23 16:34 UTC.
Position N 34°36' E 139°53'.
Warning: this ship's position is 12 days out of date.

Length 229 m; draft 8.9 m.

Type: Cargo ship. MMSI: 431400000.

Date/timePositionNaut miles runAvg speedWind from/ knotsBaromVisibWave heightAir tempDewpointWater temp
2017-Sep-11 11:57N 34°36' E 139°53'1113.1
2017-Sep-11 11:05N 34°45' E 139°46'212.9
2017-Sep-11 10:56N 34°47' E 139°45'613.5
2017-Sep-11 10:29N 34°52' E 139°42'612.9
2017-Sep-11 10:00N 34°58' E 139°40'612.1
2017-Sep-11 09:30N 35°04' E 139°42'612.5
2017-Sep-11 09:00N 35°10' E 139°45'510.6
2017-Sep-11 08:30N 35°15' E 139°46'510.3
2017-Sep-11 08:01N 35°19' E 139°43'611.0
2017-Sep-11 07:31N 35°25' E 139°43'612.3
2017-Sep-11 07:01N 35°28' E 139°49'5 9.6
2017-Sep-11 06:31N 35°31' E 139°54'0 0.1
2017-Sep-11 05:53N 35°32' E 139°54'0 0.0
2017-Sep-11 05:26N 35°32' E 139°54'0 0.0
2017-Sep-11 04:59N 35°32' E 139°54'0 0.0
2017-Sep-11 04:29N 35°32' E 139°54'0 0.0
2017-Sep-11 03:59N 35°32' E 139°54'0 0.0
2017-Sep-11 03:29N 35°32' E 139°54'0 0.1
2017-Sep-11 02:59N 35°32' E 139°54'0 0.1
2017-Sep-11 02:29N 35°32' E 139°54'0 0.3
2017-Sep-11 01:59N 35°31' E 139°54'0 0.2
2017-Sep-11 01:30N 35°31' E 139°54'3 6.2
2017-Sep-11 01:00N 35°29' E 139°52'612.2
2017-Sep-11 00:31N 35°25' E 139°47'612.3
2017-Sep-11 00:00N 35°19' E 139°44'612.4
2017-Sep-10 23:30N 35°13' E 139°47'4 8.7
2017-Sep-10 23:00N 35°09' E 139°46'3 5.4
2017-Sep-10 22:30N 35°06' E 139°45'3 6.9
2017-Sep-10 22:00N 35°03' E 139°43'3 6.9
2017-Sep-10 21:30N 34°60' E 139°42'4 8.7
2017-Sep-10 21:00N 34°55' E 139°42'5 8.8
2017-Sep-10 20:29N 34°51' E 139°42'  

Dump ship's entire track history